createdAt,value
2022-12-09T16:45:37.572Z,99941.50
2022-12-09T16:48:05.142Z,99937.63
2022-12-09T16:50:36.449Z,99944.56
2022-12-09T16:53:05.595Z,99935.38
2022-12-09T16:55:32.214Z,99938.31
2022-12-09T16:58:01.701Z,99950.81
2022-12-09T17:00:28.134Z,99946.78
2022-12-09T17:03:00.818Z,99948.44
2022-12-09T17:05:27.343Z,99950.06
2022-12-09T17:07:54.009Z,99956.31
2022-12-09T17:10:21.017Z,99959.84
2022-12-09T17:12:47.430Z,99959.84
2022-12-09T17:15:15.197Z,99960.69
2022-12-09T17:17:48.132Z,99958.41
2022-12-09T17:20:15.088Z,99953.41
2022-12-09T17:22:42.342Z,99953.00
2022-12-09T17:25:10.421Z,99954.53
2022-12-09T17:27:37.271Z,99959.94
2022-12-09T17:30:08.196Z,99956.06
2022-12-09T17:32:35.731Z,99955.53
2022-12-09T17:35:03.526Z,99961.91
2022-12-09T17:37:31.735Z,99969.78
2022-12-09T17:40:03.417Z,99964.13
2022-12-09T17:42:31.580Z,99973.44
2022-12-09T17:44:58.170Z,99965.50
2022-12-09T17:47:24.842Z,99962.00
2022-12-09T17:49:51.407Z,99936.03
2022-12-09T17:52:17.991Z,99977.91
2022-12-09T17:54:44.643Z,99976.19
2022-12-09T17:57:11.241Z,99974.41
2022-12-09T17:59:38.124Z,99979.22
2022-12-09T18:02:04.991Z,99983.78
2022-12-09T18:04:32.004Z,99982.78
2022-12-09T18:06:58.509Z,99990.50
2022-12-09T18:09:25.036Z,99993.00
2022-12-09T18:11:51.945Z,99995.22
2022-12-09T18:14:18.722Z,100011.47
2022-12-09T18:16:46.596Z,100000.25
2022-12-09T18:19:16.385Z,100007.91
2022-12-09T18:21:43.274Z,100012.38
2022-12-09T18:24:10.041Z,100006.34
2022-12-09T18:26:41.567Z,100016.66
2022-12-09T18:29:09.081Z,100013.28
2022-12-09T18:31:35.898Z,100013.81
2022-12-09T18:34:02.471Z,100020.59
2022-12-09T18:36:29.351Z,100011.78
2022-12-09T18:38:57.917Z,100015.28
2022-12-09T18:41:31.475Z,100017.50
2022-12-09T18:44:02.366Z,100013.06
2022-12-09T18:46:34.277Z,100025.44
2022-12-09T19:02:24.798Z,100026.78
2022-12-09T19:04:51.410Z,100024.97
2022-12-09T19:07:17.852Z,100024.44
2022-12-09T19:09:49.555Z,100028.31
2022-12-09T19:12:45.957Z,100024.97
2022-12-09T19:15:05.443Z,100034.31
2022-12-09T19:17:32.593Z,100026.38
2022-12-09T19:19:59.226Z,100026.25
2022-12-09T19:22:25.780Z,100031.50
2022-12-09T19:25:18.307Z,100034.09
2022-12-09T19:27:47.056Z,100031.50
2022-12-09T19:30:14.103Z,100035.16
2022-12-09T19:32:56.731Z,100008.25
2022-12-09T19:35:23.993Z,100037.72
2022-12-09T19:37:54.297Z,100043.28
2022-12-09T19:40:23.525Z,100034.34
2022-12-09T19:43:36.824Z,100045.75
2022-12-09T19:46:07.518Z,100031.88
2022-12-09T19:48:35.856Z,100041.59
2022-12-09T19:51:03.631Z,100034.28
2022-12-09T19:53:30.946Z,100040.59
2022-12-09T19:56:00.223Z,100038.31
2022-12-09T19:58:28.734Z,100039.03
2022-12-09T20:00:55.639Z,100043.22
2022-12-09T20:03:25.937Z,100042.91
2022-12-09T20:06:02.941Z,100042.44
2022-12-09T20:08:33.356Z,100046.66
2022-12-09T20:11:01.471Z,100047.03
2022-12-09T20:13:43.724Z,100048.41
2022-12-09T20:16:19.894Z,100053.72
2022-12-09T20:18:54.810Z,100049.78
2022-12-09T20:21:25.530Z,100053.00
2022-12-09T20:23:52.850Z,100059.47
2022-12-09T20:26:27.638Z,100061.53
2022-12-09T20:28:55.317Z,100065.13
2022-12-09T20:31:26.385Z,100064.81
2022-12-09T20:33:54.324Z,100072.50
2022-12-09T20:36:21.753Z,100069.13
2022-12-09T20:38:52.447Z,100072.75
2022-12-09T20:41:19.723Z,100068.25
2022-12-09T20:43:47.015Z,100073.31
2022-12-09T20:46:17.805Z,100077.06
2022-12-09T20:48:44.681Z,100077.28
2022-12-09T20:51:24.178Z,100078.28
2022-12-09T20:53:51.221Z,100080.38
2022-12-09T20:56:20.664Z,100084.78
2022-12-09T20:58:47.723Z,100078.31
2022-12-09T21:01:16.796Z,100079.69
2022-12-09T21:03:43.542Z,100083.38
2022-12-09T21:06:10.921Z,100083.66
2022-12-09T21:08:37.687Z,100075.56
2022-12-09T21:11:09.096Z,100080.09
2022-12-09T21:13:36.852Z,100043.47
2022-12-09T21:16:04.818Z,100080.69
2022-12-09T21:18:31.632Z,100079.88
2022-12-09T21:20:58.089Z,100080.47
2022-12-09T21:23:33.635Z,100073.19
2022-12-09T21:26:05.529Z,100080.91
2022-12-09T21:28:33.503Z,100086.66
2022-12-09T21:31:05.866Z,100080.38
2022-12-09T21:33:32.649Z,100075.84
2022-12-09T21:35:59.202Z,100079.09
2022-12-09T21:38:28.144Z,100085.19
2022-12-09T21:40:54.601Z,100076.41
2022-12-09T21:43:21.241Z,100089.63
2022-12-09T21:45:47.933Z,100086.25
2022-12-09T21:48:14.446Z,100092.69
2022-12-09T21:50:41.940Z,100102.91
2022-12-09T21:53:08.418Z,100099.38
2022-12-09T21:55:34.923Z,100094.91
2022-12-09T21:58:02.433Z,100090.25
2022-12-09T22:00:29.662Z,100091.41
2022-12-09T22:02:56.231Z,100098.69
2022-12-09T22:05:24.868Z,100101.97
2022-12-09T22:07:51.421Z,100102.53
2022-12-09T22:10:17.989Z,100107.91
2022-12-09T22:12:44.483Z,100112.38
2022-12-09T22:15:11.028Z,100105.94
2022-12-09T22:17:39.786Z,100113.78
2022-12-09T22:20:48.936Z,100115.78
2022-12-09T22:22:54.095Z,100111.31
2022-12-09T22:25:20.707Z,100115.22
2022-12-09T22:27:47.170Z,100116.50
2022-12-09T22:30:13.722Z,100123.91
2022-12-09T22:32:42.124Z,100115.78
2022-12-09T22:35:11.160Z,100119.16
2022-12-09T22:37:44.170Z,100123.75
2022-12-09T22:40:11.319Z,100126.41
2022-12-09T22:42:38.873Z,100125.59
2022-12-09T22:45:05.947Z,100124.34
2022-12-09T22:47:32.584Z,100125.03
2022-12-09T22:49:59.356Z,100128.25
2022-12-09T22:52:25.745Z,100124.19
2022-12-09T22:54:52.300Z,100123.78
2022-12-09T22:57:18.715Z,100130.34
2022-12-09T22:59:45.127Z,100129.94
2022-12-09T23:02:11.645Z,100127.41
2022-12-09T23:04:38.324Z,100132.47
2022-12-09T23:07:04.723Z,100123.47
2022-12-09T23:09:31.364Z,100124.19
2022-12-09T23:11:57.729Z,100131.78
2022-12-09T23:14:24.146Z,100134.28
2022-12-09T23:16:50.616Z,100136.78
2022-12-09T23:19:17.011Z,100134.28
2022-12-09T23:21:43.502Z,100134.84
2022-12-09T23:24:11.436Z,100136.53
2022-12-09T23:26:39.306Z,100142.28
2022-12-09T23:29:07.074Z,100143.50
2022-12-09T23:31:34.756Z,100140.16
2022-12-09T23:34:01.662Z,100138.91
2022-12-09T23:36:32.569Z,100148.41
2022-12-09T23:38:59.627Z,100157.34
2022-12-09T23:41:26.101Z,100157.25
2022-12-09T23:43:52.877Z,100151.09
2022-12-09T23:46:20.515Z,100154.47
2022-12-09T23:48:48.103Z,100154.19
2022-12-09T23:51:17.660Z,100152.44
2022-12-09T23:53:44.815Z,100152.69
2022-12-09T23:56:12.422Z,100159.81
2022-12-09T23:58:39.183Z,100156.09
